createdAt,value
2022-10-19T00:01:40.574Z,3.58
2022-10-19T00:04:08.834Z,5.13
2022-10-19T00:06:36.431Z,3.13
2022-10-19T00:09:03.144Z,4.20
2022-10-19T00:11:30.142Z,4.32
2022-10-19T00:13:56.962Z,3.95
2022-10-19T00:16:23.892Z,4.15
2022-10-19T00:18:50.630Z,4.18
2022-10-19T00:21:18.484Z,4.13
2022-10-19T00:23:45.534Z,3.30
2022-10-19T00:26:12.676Z,3.95
2022-10-19T00:28:39.436Z,5.65
2022-10-19T00:31:08.181Z,4.22
2022-10-19T00:33:35.014Z,3.53
2022-10-19T00:36:01.809Z,4.03
2022-10-19T00:38:28.515Z,5.05
2022-10-19T00:40:55.360Z,2.60
2022-10-19T00:43:23.872Z,3.40
2022-10-19T00:45:50.751Z,2.38
2022-10-19T00:48:28.147Z,3.28
2022-10-19T00:50:55.347Z,5.55
2022-10-19T00:53:22.060Z,4.25
2022-10-19T00:55:48.947Z,4.72
2022-10-19T00:58:15.842Z,4.13
2022-10-19T01:00:42.586Z,3.42
2022-10-19T01:03:09.819Z,3.28
2022-10-19T01:05:36.565Z,3.10
2022-10-19T01:08:03.454Z,1.98
2022-10-19T01:10:42.136Z,1.80
2022-10-19T01:13:44.010Z,1.92
2022-10-19T01:16:22.395Z,2.08
2022-10-19T01:19:21.924Z,2.25
2022-10-19T01:21:50.508Z,1.90
2022-10-19T01:24:40.793Z,2.63
2022-10-19T01:27:20.719Z,1.67
2022-10-19T01:30:06.936Z,1.80
2022-10-19T01:32:49.554Z,1.52
2022-10-19T01:35:35.772Z,1.70
2022-10-19T01:38:11.855Z,2.30
2022-10-19T01:41:08.198Z,2.88
2022-10-19T01:43:38.530Z,2.50
2022-10-19T01:46:18.824Z,2.97
2022-10-19T01:48:51.045Z,2.05
2022-10-19T01:51:19.937Z,2.75
2022-10-19T01:53:49.563Z,3.17
2022-10-19T01:56:17.432Z,3.25
2022-10-19T01:58:44.514Z,3.97
2022-10-19T02:03:43.069Z,3.22
2022-10-19T02:06:10.195Z,4.45
2022-10-19T02:08:55.059Z,3.55
2022-10-19T02:11:22.279Z,3.72
2022-10-19T02:13:54.943Z,4.40
2022-10-19T02:16:30.220Z,2.72
2022-10-19T02:18:56.997Z,2.28
2022-10-19T02:21:23.765Z,3.67
2022-10-19T02:23:53.372Z,1.85
2022-10-19T02:26:21.314Z,1.90
2022-10-19T02:28:48.184Z,3.63
2022-10-19T02:31:14.847Z,4.07
2022-10-19T02:33:41.631Z,2.47
2022-10-19T02:36:08.421Z,3.92
2022-10-19T02:38:35.364Z,2.35
2022-10-19T02:41:13.993Z,2.70
2022-10-19T02:43:41.753Z,5.15
2022-10-19T02:46:19.730Z,4.35
2022-10-19T02:48:46.431Z,4.70
2022-10-19T02:51:30.331Z,4.28
2022-10-19T02:53:58.985Z,3.80
2022-10-19T02:56:27.978Z,3.72
2022-10-19T02:58:54.792Z,3.17
2022-10-19T03:01:21.549Z,3.20
2022-10-19T03:03:48.489Z,2.65
2022-10-19T03:06:15.244Z,3.35
2022-10-19T03:08:41.961Z,2.75
2022-10-19T03:11:08.649Z,3.80
2022-10-19T03:13:35.580Z,3.33
2022-10-19T03:16:11.453Z,4.05
2022-10-19T03:18:38.603Z,4.85
2022-10-19T03:21:07.397Z,4.68
2022-10-19T03:23:34.487Z,4.97
2022-10-19T03:26:01.344Z,5.05
2022-10-19T03:28:28.325Z,5.90
2022-10-19T03:30:55.169Z,6.47
2022-10-19T03:33:21.976Z,8.02
2022-10-19T03:35:48.718Z,7.95
2022-10-19T03:38:15.467Z,6.43
2022-10-19T03:40:42.412Z,5.68
2022-10-19T03:43:09.194Z,5.30
2022-10-19T03:45:35.896Z,4.60
2022-10-19T03:48:02.594Z,4.35
2022-10-19T03:50:29.268Z,4.00
2022-10-19T03:52:55.999Z,3.33
2022-10-19T03:55:22.683Z,3.67
2022-10-19T03:57:49.416Z,4.60
2022-10-19T04:00:16.255Z,1.85
2022-10-19T04:02:43.027Z,2.78
2022-10-19T04:05:09.756Z,2.30
2022-10-19T04:07:36.662Z,3.38
2022-10-19T04:10:03.605Z,1.95
2022-10-19T04:12:30.284Z,3.25
2022-10-19T04:14:57.783Z,2.10
2022-10-19T04:17:25.391Z,2.95
2022-10-19T04:19:52.081Z,2.17
2022-10-19T04:22:18.802Z,2.35
2022-10-19T04:24:45.469Z,2.78
2022-10-19T04:27:12.213Z,4.85
2022-10-19T04:29:38.936Z,2.33
2022-10-19T04:32:05.955Z,2.20
2022-10-19T04:34:35.251Z,3.17
2022-10-19T04:37:04.484Z,2.67
2022-10-19T04:39:31.168Z,2.53
2022-10-19T04:41:57.928Z,2.83
2022-10-19T04:46:56.216Z,3.42
2022-10-19T04:49:22.943Z,3.45
2022-10-19T04:51:49.659Z,4.22
2022-10-19T04:54:16.335Z,4.50
2022-10-19T04:56:43.002Z,4.03
2022-10-19T04:59:09.850Z,3.28
2022-10-19T05:01:36.806Z,3.20
2022-10-19T05:04:03.692Z,3.67
2022-10-19T05:06:31.282Z,2.47
2022-10-19T05:08:58.150Z,2.67
2022-10-19T05:11:25.067Z,2.72
2022-10-19T05:13:51.830Z,5.00
2022-10-19T05:16:20.526Z,2.65
2022-10-19T05:18:48.948Z,2.90
2022-10-19T05:21:15.939Z,4.80
2022-10-19T05:23:42.728Z,3.58
2022-10-19T05:26:13.436Z,3.92
2022-10-19T05:28:40.298Z,3.28
2022-10-19T05:31:12.347Z,2.88
2022-10-19T05:33:39.236Z,3.70
2022-10-19T05:36:19.103Z,4.47
2022-10-19T05:38:49.573Z,2.60
2022-10-19T05:41:16.522Z,3.58
2022-10-19T05:43:43.397Z,3.63
2022-10-19T05:46:12.139Z,4.35
2022-10-19T05:48:39.151Z,4.03
2022-10-19T05:51:06.610Z,3.92
2022-10-19T05:53:33.689Z,3.85
2022-10-19T05:56:00.465Z,3.88
2022-10-19T05:58:27.306Z,3.90
2022-10-19T06:00:54.838Z,3.40
2022-10-19T06:03:22.252Z,3.80
2022-10-19T06:05:49.934Z,4.00
2022-10-19T06:08:20.066Z,4.50
2022-10-19T06:10:47.022Z,4.88
2022-10-19T06:13:14.002Z,4.55
2022-10-19T06:15:40.738Z,5.55
2022-10-19T06:18:08.207Z,6.32
2022-10-19T06:20:36.264Z,6.93
2022-10-19T06:23:03.109Z,6.63
2022-10-19T06:25:30.678Z,5.75
2022-10-19T06:27:57.874Z,6.72
2022-10-19T06:30:24.627Z,6.97
2022-10-19T06:32:51.407Z,5.45
2022-10-19T06:35:18.444Z,6.07
2022-10-19T06:37:45.202Z,5.63
2022-10-19T06:40:12.235Z,4.05
2022-10-19T06:42:41.733Z,5.22
2022-10-19T06:45:09.093Z,4.13
2022-10-19T06:47:39.241Z,4.45
2022-10-19T06:50:06.772Z,4.55
2022-10-19T06:52:34.578Z,3.75
2022-10-19T06:55:01.770Z,4.35
2022-10-19T06:57:28.845Z,4.85
2022-10-19T06:59:55.926Z,3.45
2022-10-19T07:02:22.755Z,4.07
2022-10-19T07:04:49.424Z,3.33
2022-10-19T07:07:16.223Z,4.22
2022-10-19T07:09:43.077Z,3.30
2022-10-19T07:12:10.886Z,3.60
2022-10-19T07:14:38.741Z,3.60
2022-10-19T07:17:15.274Z,3.30
2022-10-19T07:19:42.034Z,4.68
2022-10-19T07:22:08.851Z,3.67
2022-10-19T07:24:35.791Z,2.90
2022-10-19T07:27:02.622Z,3.85
2022-10-19T07:29:29.311Z,3.15
2022-10-19T07:31:56.160Z,3.05
2022-10-19T07:34:28.951Z,3.33
2022-10-19T07:36:55.929Z,5.30
2022-10-19T07:39:22.644Z,3.72
2022-10-19T07:41:49.344Z,3.25
2022-10-19T07:44:16.282Z,3.25
2022-10-19T07:46:43.156Z,3.25
2022-10-19T07:49:13.593Z,2.42
2022-10-19T07:51:42.657Z,2.65
2022-10-19T07:54:09.368Z,4.00
2022-10-19T07:56:36.229Z,3.42
2022-10-19T07:59:04.929Z,3.47
2022-10-19T08:01:33.389Z,2.60
2022-10-19T08:06:47.515Z,4.07
2022-10-19T08:09:28.050Z,3.05
2022-10-19T08:12:01.337Z,3.22
2022-10-19T08:14:28.343Z,3.58
2022-10-19T08:16:55.149Z,4.60
2022-10-19T08:19:22.707Z,3.78
2022-10-19T08:21:49.522Z,3.65
2022-10-19T08:24:17.529Z,3.42
2022-10-19T08:26:44.413Z,3.92
2022-10-19T08:29:13.758Z,3.92
2022-10-19T08:31:40.771Z,4.22
2022-10-19T08:34:07.854Z,4.20
2022-10-19T08:36:35.731Z,4.63
2022-10-19T08:39:03.900Z,3.47
2022-10-19T08:41:35.977Z,3.15
2022-10-19T08:44:27.566Z,3.05
2022-10-19T08:47:32.309Z,3.38
2022-10-19T08:52:34.670Z,3.25
2022-10-19T08:55:09.148Z,5.35
2022-10-19T08:57:57.704Z,3.75
2022-10-19T09:00:30.274Z,5.03
2022-10-19T09:03:22.990Z,4.55
2022-10-19T09:06:14.858Z,4.40
2022-10-19T09:08:41.617Z,4.53
2022-10-19T09:11:09.730Z,3.92
2022-10-19T09:14:05.991Z,4.13
2022-10-19T09:16:34.899Z,4.03
2022-10-19T09:19:02.300Z,4.00
2022-10-19T09:21:47.465Z,4.20
2022-10-19T09:24:28.758Z,3.75
2022-10-19T09:27:01.765Z,4.05
2022-10-19T09:29:39.223Z,4.05
2022-10-19T09:32:14.542Z,3.58
2022-10-19T09:34:51.964Z,4.28
2022-10-19T09:37:25.022Z,4.28
2022-10-19T09:39:55.151Z,4.40
2022-10-19T09:42:30.520Z,3.30
2022-10-19T09:44:58.356Z,5.28
2022-10-19T09:47:34.834Z,4.25
2022-10-19T09:50:42.362Z,4.47
2022-10-19T09:53:19.707Z,4.90
2022-10-19T09:58:21.352Z,5.68
2022-10-19T10:00:54.921Z,4.25
2022-10-19T10:03:32.231Z,4.57
2022-10-19T10:06:02.372Z,6.00
2022-10-19T10:08:34.668Z,4.93
2022-10-19T10:11:23.425Z,5.47
2022-10-19T10:13:51.882Z,3.78
2022-10-19T10:16:20.236Z,4.13
2022-10-19T10:19:08.924Z,4.47
2022-10-19T10:21:47.462Z,3.70
2022-10-19T10:24:14.148Z,3.88
2022-10-19T10:26:45.156Z,4.78
2022-10-19T10:29:20.624Z,4.88
2022-10-19T10:32:06.913Z,4.10
2022-10-19T10:34:46.068Z,4.32
2022-10-19T10:37:36.107Z,4.15
2022-10-19T10:40:04.748Z,4.22
2022-10-19T10:42:41.014Z,4.30
2022-10-19T10:45:19.177Z,4.28
2022-10-19T10:47:48.335Z,4.63
2022-10-19T10:50:23.158Z,4.25
2022-10-19T10:53:00.832Z,3.38
2022-10-19T10:55:27.724Z,4.22
2022-10-19T10:58:10.896Z,4.47
2022-10-19T11:00:40.566Z,4.50
2022-10-19T11:03:12.725Z,4.75
2022-10-19T11:05:42.042Z,5.75
2022-10-19T11:08:18.788Z,4.45
2022-10-19T11:11:00.785Z,3.75
2022-10-19T11:13:46.064Z,4.13
2022-10-19T11:16:17.200Z,3.58
2022-10-19T11:18:55.413Z,4.15
2022-10-19T11:21:30.407Z,4.70
2022-10-19T11:24:24.562Z,4.80
2022-10-19T11:30:12.271Z,4.00
2022-10-19T11:33:04.284Z,4.80
2022-10-19T11:35:43.171Z,3.63
2022-10-19T11:38:31.491Z,4.47
2022-10-19T11:41:17.438Z,4.05
2022-10-19T11:44:13.401Z,4.30
2022-10-19T11:47:22.002Z,4.10
2022-10-19T11:50:06.865Z,5.97
2022-10-19T11:52:40.922Z,5.20
2022-10-19T11:55:24.642Z,5.35
2022-10-19T11:58:11.614Z,4.47
2022-10-19T12:00:44.543Z,3.38
2022-10-19T12:03:18.494Z,3.37
2022-10-19T12:05:51.431Z,3.47
2022-10-19T12:08:56.982Z,4.10
2022-10-19T12:11:50.405Z,4.13
2022-10-19T12:14:19.614Z,4.60
2022-10-19T12:16:50.070Z,4.13
2022-10-19T12:19:19.620Z,5.75
2022-10-19T12:21:46.469Z,4.22
2022-10-19T12:24:21.500Z,5.60
2022-10-19T12:26:48.249Z,4.15
2022-10-19T12:29:23.757Z,4.75
2022-10-19T12:31:50.465Z,4.28
2022-10-19T12:34:23.240Z,4.80
2022-10-19T12:36:57.085Z,4.55
2022-10-19T12:39:32.027Z,3.88
2022-10-19T12:42:04.908Z,4.05
2022-10-19T12:45:00.436Z,4.43
2022-10-19T12:47:27.290Z,3.88
2022-10-19T12:49:57.871Z,5.55
2022-10-19T12:52:44.508Z,4.95
2022-10-19T12:55:12.323Z,4.53
2022-10-19T12:57:39.698Z,4.15
2022-10-19T13:00:24.094Z,5.28
2022-10-19T13:03:16.415Z,5.82
2022-10-19T13:05:43.152Z,4.40
2022-10-19T13:08:14.565Z,5.13
2022-10-19T13:10:41.538Z,4.00
2022-10-19T13:13:38.105Z,4.50
2022-10-19T13:16:41.662Z,4.20
2022-10-19T13:19:14.631Z,4.20
2022-10-19T13:22:26.945Z,4.30
2022-10-19T13:25:26.824Z,4.03
2022-10-19T13:28:28.455Z,4.00
2022-10-19T13:31:00.478Z,3.80
2022-10-19T13:33:32.800Z,4.72
2022-10-19T13:35:59.613Z,4.78
2022-10-19T13:38:29.612Z,4.00
2022-10-19T13:40:56.481Z,3.88
2022-10-19T13:43:26.781Z,3.72
2022-10-19T13:46:05.555Z,3.00
2022-10-19T13:49:01.453Z,4.25
2022-10-19T13:51:43.070Z,3.95
2022-10-19T13:54:41.890Z,5.45
2022-10-19T13:57:32.113Z,3.65
2022-10-19T14:00:15.863Z,3.10
2022-10-19T14:03:26.416Z,4.93
2022-10-19T14:06:05.017Z,4.72
2022-10-19T14:09:09.944Z,4.13
2022-10-19T14:11:44.340Z,4.45
2022-10-19T14:14:11.061Z,3.90
2022-10-19T14:16:49.506Z,4.65
2022-10-19T14:19:33.586Z,3.97
2022-10-19T14:22:01.454Z,4.25
2022-10-19T14:24:29.085Z,4.65
2022-10-19T14:26:56.388Z,5.72
2022-10-19T14:29:23.152Z,6.18
2022-10-19T14:31:49.866Z,4.30
2022-10-19T14:34:16.566Z,5.40
2022-10-19T14:36:47.581Z,4.57
2022-10-19T14:39:32.976Z,5.05
2022-10-19T14:42:06.100Z,4.38
2022-10-19T14:44:35.016Z,7.05
2022-10-19T14:47:02.039Z,5.93
2022-10-19T14:49:28.856Z,5.28
2022-10-19T14:51:58.609Z,5.38
2022-10-19T14:54:37.631Z,5.10
2022-10-19T14:57:19.244Z,6.05
2022-10-19T14:59:50.166Z,6.13
2022-10-19T15:02:37.508Z,6.22
2022-10-19T15:05:05.620Z,4.82
2022-10-19T15:07:39.726Z,6.75
2022-10-19T15:10:18.651Z,5.30
2022-10-19T15:12:45.375Z,6.75
2022-10-19T15:15:32.901Z,5.82
2022-10-19T15:17:59.600Z,5.05
2022-10-19T15:20:27.723Z,5.10
2022-10-19T15:22:54.745Z,4.03
2022-10-19T15:25:33.801Z,6.13
2022-10-19T15:28:40.611Z,5.47
2022-10-19T15:31:18.879Z,5.20
2022-10-19T15:33:57.203Z,6.00
2022-10-19T15:36:24.377Z,6.75
2022-10-19T15:39:11.397Z,4.55
2022-10-19T15:41:46.561Z,5.93
2022-10-19T15:44:31.245Z,7.47
2022-10-19T15:47:16.366Z,5.97
2022-10-19T15:49:43.310Z,7.30
2022-10-19T15:52:20.332Z,5.75
2022-10-19T15:54:48.211Z,6.80
2022-10-19T15:57:37.349Z,7.10
2022-10-19T16:00:15.306Z,5.25
2022-10-19T16:02:42.064Z,6.50
2022-10-19T16:05:08.841Z,8.13
2022-10-19T16:07:37.852Z,6.20
2022-10-19T16:10:05.316Z,6.32
2022-10-19T16:12:31.972Z,6.25
2022-10-19T16:14:58.705Z,7.40
2022-10-19T16:17:25.433Z,7.20
2022-10-19T16:19:52.148Z,5.40
2022-10-19T16:22:18.807Z,5.97
2022-10-19T16:24:45.555Z,5.70
2022-10-19T16:27:15.255Z,5.53
2022-10-19T16:29:42.977Z,6.07
2022-10-19T16:32:09.716Z,6.43
2022-10-19T16:34:36.615Z,7.00
2022-10-19T16:37:05.910Z,6.10
2022-10-19T16:39:33.901Z,6.32
2022-10-19T16:42:00.624Z,6.45
2022-10-19T16:44:27.470Z,5.35
2022-10-19T16:46:56.605Z,5.95
2022-10-19T16:49:23.280Z,5.75
2022-10-19T16:51:52.040Z,6.28
2022-10-19T16:54:21.591Z,6.40
2022-10-19T16:56:48.393Z,4.88
2022-10-19T16:59:16.849Z,6.10
2022-10-19T17:01:44.490Z,7.15
2022-10-19T17:04:12.260Z,6.03
2022-10-19T17:06:39.081Z,6.95
2022-10-19T17:11:52.619Z,6.53
2022-10-19T17:14:19.370Z,5.85
2022-10-19T17:16:46.035Z,5.90
2022-10-19T17:19:12.864Z,6.13
2022-10-19T17:21:39.600Z,5.43
2022-10-19T17:24:07.700Z,7.13
2022-10-19T17:26:36.149Z,6.15
2022-10-19T17:29:03.039Z,7.20
2022-10-19T17:31:29.760Z,6.32
2022-10-19T17:33:56.861Z,8.10
2022-10-19T17:36:28.542Z,6.38
2022-10-19T17:38:56.400Z,5.85
2022-10-19T17:41:23.326Z,6.97
2022-10-19T17:43:53.032Z,7.88
2022-10-19T17:46:24.389Z,6.22
2022-10-19T17:48:51.153Z,7.60
2022-10-19T17:51:23.700Z,6.22
2022-10-19T17:53:50.770Z,7.07
2022-10-19T17:56:18.839Z,6.65
2022-10-19T17:58:45.691Z,5.93
2022-10-19T18:01:12.720Z,6.45
2022-10-19T18:03:39.504Z,7.55
2022-10-19T18:06:10.697Z,6.68
2022-10-19T18:08:39.742Z,6.93
2022-10-19T18:11:10.529Z,6.93
2022-10-19T18:16:11.591Z,7.70
2022-10-19T18:18:39.106Z,6.10
2022-10-19T18:21:07.118Z,7.05
2022-10-19T18:23:34.093Z,8.65
2022-10-19T18:26:27.651Z,7.43
2022-10-19T18:28:54.549Z,8.53
2022-10-19T18:31:22.883Z,8.80
2022-10-19T18:33:50.693Z,8.45
2022-10-19T18:36:17.380Z,7.55
2022-10-19T18:38:44.121Z,9.45
2022-10-19T18:43:43.395Z,8.00
2022-10-19T18:46:10.609Z,7.90
2022-10-19T18:48:37.861Z,8.10
2022-10-19T18:51:06.562Z,8.30
2022-10-19T18:53:37.796Z,8.48
2022-10-19T18:56:08.270Z,8.02
2022-10-19T18:58:35.605Z,9.05
2022-10-19T19:01:06.084Z,9.43
2022-10-19T19:03:32.832Z,9.60
2022-10-19T19:06:10.291Z,10.05
2022-10-19T19:08:37.043Z,8.75
2022-10-19T19:11:11.617Z,8.40
2022-10-19T19:13:38.650Z,9.60
2022-10-19T19:16:05.643Z,9.65
2022-10-19T19:18:34.380Z,9.45
2022-10-19T19:21:01.825Z,9.43
2022-10-19T19:23:28.624Z,9.63
2022-10-19T19:25:55.831Z,10.68
2022-10-19T19:28:22.837Z,10.88
2022-10-19T19:30:49.488Z,10.90
2022-10-19T19:33:16.129Z,10.18
2022-10-19T19:35:44.037Z,10.25
2022-10-19T19:38:11.427Z,9.95
2022-10-19T19:40:41.695Z,10.00
2022-10-19T19:43:11.819Z,10.48
2022-10-19T19:45:38.620Z,11.18
2022-10-19T19:48:05.944Z,10.30
2022-10-19T19:50:32.741Z,12.68
2022-10-19T19:52:59.729Z,10.90
2022-10-19T19:55:26.641Z,11.30
2022-10-19T19:57:54.410Z,10.45
2022-10-19T20:00:22.335Z,11.10
2022-10-19T20:02:55.600Z,10.60
2022-10-19T20:05:22.424Z,10.57
2022-10-19T20:07:49.250Z,12.77
2022-10-19T20:10:16.215Z,10.65
2022-10-19T20:12:43.750Z,10.27
2022-10-19T20:15:11.163Z,12.57
2022-10-19T20:17:38.435Z,11.60
2022-10-19T20:20:06.121Z,11.18
2022-10-19T20:22:32.841Z,11.10
2022-10-19T20:24:59.493Z,12.25
2022-10-19T20:27:26.174Z,10.63
2022-10-19T20:29:58.295Z,11.82
2022-10-19T20:32:25.995Z,10.23
2022-10-19T20:34:52.878Z,12.35
2022-10-19T20:37:20.241Z,11.20
2022-10-19T20:39:47.491Z,11.00
2022-10-19T20:42:14.651Z,11.63
2022-10-19T20:44:44.554Z,12.13
2022-10-19T20:47:11.411Z,10.52
2022-10-19T20:49:38.239Z,11.35
2022-10-19T20:52:04.909Z,11.35
2022-10-19T20:54:31.688Z,11.70
2022-10-19T20:56:58.483Z,10.98
2022-10-19T20:59:27.991Z,11.50
2022-10-19T21:01:56.075Z,11.00
2022-10-19T21:04:22.871Z,12.75
2022-10-19T21:06:50.163Z,12.10
2022-10-19T21:09:23.720Z,11.20
2022-10-19T21:11:50.978Z,12.15
2022-10-19T21:14:27.227Z,11.73
2022-10-19T21:16:56.843Z,12.50
2022-10-19T21:19:25.245Z,11.80
2022-10-19T21:21:55.403Z,12.32
2022-10-19T21:24:26.928Z,11.60
2022-10-19T21:26:53.917Z,12.88
2022-10-19T21:29:20.675Z,12.60
2022-10-19T21:31:49.231Z,12.23
2022-10-19T21:34:22.855Z,11.75
2022-10-19T21:36:49.939Z,10.10
2022-10-19T21:39:17.172Z,10.30
2022-10-19T21:41:43.862Z,11.88
2022-10-19T21:44:10.561Z,12.25
2022-10-19T21:46:37.398Z,11.73
2022-10-19T21:49:04.060Z,12.43
2022-10-19T21:51:42.495Z,12.20
2022-10-19T21:54:12.198Z,12.38
2022-10-19T21:56:39.174Z,11.52
2022-10-19T21:59:06.049Z,11.77
2022-10-19T22:01:38.753Z,14.38
2022-10-19T22:04:11.004Z,10.88
2022-10-19T22:06:37.720Z,12.73
2022-10-19T22:09:05.389Z,11.45
2022-10-19T22:11:32.297Z,13.25
2022-10-19T22:14:00.212Z,12.05
2022-10-19T22:16:27.274Z,12.57
2022-10-19T22:18:54.159Z,12.50
2022-10-19T22:21:28.525Z,14.38
2022-10-19T22:23:57.068Z,12.10
2022-10-19T22:26:25.723Z,12.35
2022-10-19T22:28:52.551Z,12.45
2022-10-19T22:31:19.300Z,11.23
2022-10-19T22:33:46.000Z,12.55
2022-10-19T22:36:13.421Z,11.60
2022-10-19T22:38:40.314Z,12.98
2022-10-19T22:41:07.205Z,12.80
2022-10-19T22:43:33.895Z,12.13
2022-10-19T22:46:00.637Z,11.85
2022-10-19T22:48:27.319Z,13.32
2022-10-19T22:50:54.335Z,12.93
2022-10-19T22:53:22.192Z,12.00
2022-10-19T22:55:48.860Z,13.52
2022-10-19T22:58:15.902Z,12.35
2022-10-19T23:00:42.552Z,12.50
2022-10-19T23:03:09.217Z,12.95
2022-10-19T23:05:35.864Z,13.73
2022-10-19T23:08:02.530Z,12.95
2022-10-19T23:10:29.266Z,13.10
2022-10-19T23:12:55.900Z,12.68
2022-10-19T23:15:22.555Z,14.30
2022-10-19T23:17:49.239Z,13.25
2022-10-19T23:20:16.035Z,13.82
2022-10-19T23:22:42.694Z,13.48
2022-10-19T23:25:09.501Z,15.05
2022-10-19T23:27:36.336Z,14.57
2022-10-19T23:30:03.968Z,16.17
2022-10-19T23:32:30.666Z,13.68
2022-10-19T23:34:57.380Z,14.13
2022-10-19T23:37:24.114Z,14.70
2022-10-19T23:39:50.777Z,14.18
2022-10-19T23:42:17.436Z,14.27
2022-10-19T23:44:44.345Z,13.32
2022-10-19T23:47:11.071Z,12.73
2022-10-19T23:49:37.707Z,13.45
2022-10-19T23:52:04.451Z,13.73
2022-10-19T23:54:31.147Z,14.32
2022-10-19T23:56:57.801Z,14.32
2022-10-19T23:59:24.485Z,14.93
